Terminal Aerodrome Forecast
Issued by NWS Cleveland, OH

Home | Current Version | Previous Version | Graphics & Text | Print | Product List | Glossary On
Versions: 1 2 3 4 5 6 7 8 9 10 11 12 13 14 15 16 17 18 19 20
000
FTUS41 KCLE 280500
TAFYNG
TAF
KYNG 280530Z 2806/2906 09002KT 6SM BR FEW150 BKN250
      TEMPO 2806/2809 4SM BR
     FM280900 09002KT 4SM BR FEW150 BKN250
     FM281400 12003KT P6SM BKN200
     FM281700 09004KT P6SM FEW045 BKN250
     FM290000 10002KT P6SM SCT200=

USA.gov is the U.S. government's official web portal to all federal, state and local government web resources and services.